Airfield :
LOGIN :

Register | Disclaimer

   EN    FR    IT 

 










Legend :    VFR   Marginal VFR   IFR   Intensive IFR   Very Intensive IFR
Visi :
Ceiling :
>= 8 km
>= 3000ft
5 to 8 km
1000 to 3000 ft
1500m to 5 km
500 to 1000 ft
800 to 1500m
200 to 500 ft
< 800m
< 200 ft
Symbols :   Thunderstorms  Fog  Heavy snow  Heavy precipitations  Wind > 20 kt
SIGMETs :     Misc.  Thunderstorms  Icing  Turbulence  Mountain Waves  Volcanic Ashes







- Airport Elevation : 1830 ft


EBLB - Butgenbach Elsenborn

CURRENT METAR :
  • 142225Z AUTO VRB01KT 7000 BKN038/// 14/13 Q1021 WHT

EXPIRED METARs :
  • 142155Z AUTO VRB01KT 6000 BR BKN029/// 14/13 Q1020 WHT
  • 142143Z AUTO VRB02KT 3600 FEW022/// BKN027/// 14/13 Q1020 YLO
  • 142125Z AUTO VRB01KT 4300 BR FEW022/// 14/13 Q1020 GRN
  • 142055Z AUTO VRB01KT 3400 BR FEW018/// SCT044/// 14/14 Q1020 YLO
  • 142050Z AUTO VRB01KT 3600 BR BKN018/// 14/14 Q1020 YLO
  • 142025Z AUTO VRB01KT 3900 BR BKN013/// 15/14 Q1020 GRN
  • 141955Z AUTO VRB01KT 4100 BR BKN011/// BKN037/// 15/14 Q1020 GRN

Expired Forecast.
No reported NOTAMs for that airfield.



MET'MAP, your aeronautical weather chart ! - Copyright ORBIFLY December 2007 - Disclaimer

ORBIFLY MET'MAP TEAM :

Programming & Development : Alexandra Zaïnal
Concept & Development : Baudouin d'Aumeries
Co-Development & Prog : Marc-Olivier Méhu
Technical & hardware support : Manuel Goepfert

Contact : metmap@orbifly.com




SOURCES & CREDITS :

   NOAA